createdAt,value
2022-12-14T00:00:08.367Z,21.05
2022-12-14T00:03:51.174Z,20.20
2022-12-14T00:07:33.009Z,21.00
2022-12-14T00:11:14.885Z,20.90
2022-12-14T00:14:56.611Z,20.42
2022-12-14T00:18:38.934Z,23.88
2022-12-14T00:22:20.997Z,21.88
2022-12-14T00:26:21.102Z,21.55
2022-12-14T00:30:02.876Z,20.60
2022-12-14T00:33:44.760Z,22.15
2022-12-14T00:37:26.543Z,22.55
2022-12-14T00:41:08.966Z,22.48
2022-12-14T00:44:50.726Z,21.15
2022-12-14T00:48:33.283Z,20.85
2022-12-14T00:52:15.114Z,22.65
2022-12-14T00:55:57.040Z,22.15
2022-12-14T00:59:38.881Z,21.73
2022-12-14T01:03:20.711Z,21.60
2022-12-14T01:07:02.494Z,23.02
2022-12-14T01:10:44.882Z,22.67
2022-12-14T01:14:26.736Z,21.92
2022-12-14T01:18:09.614Z,21.30
2022-12-14T01:21:53.382Z,22.35
2022-12-14T01:25:35.169Z,20.55
2022-12-14T01:29:17.129Z,22.50
2022-12-14T01:32:58.844Z,23.20
2022-12-14T01:36:40.709Z,22.45
2022-12-14T01:40:22.423Z,20.60
2022-12-14T01:44:10.183Z,22.83
2022-12-14T01:48:03.658Z,22.15
2022-12-14T01:51:53.142Z,22.00
2022-12-14T01:55:39.191Z,20.48
2022-12-14T01:59:31.281Z,21.67
2022-12-14T02:03:17.792Z,22.15
2022-12-14T02:07:01.280Z,21.10
2022-12-14T02:10:44.962Z,22.42
2022-12-14T02:14:26.994Z,22.52
2022-12-14T02:18:12.498Z,20.70
2022-12-14T02:22:24.709Z,21.02
2022-12-14T02:26:35.619Z,20.90
2022-12-14T02:30:26.221Z,22.33
2022-12-14T02:34:49.773Z,21.08
2022-12-14T02:38:54.376Z,20.63
2022-12-14T02:42:48.057Z,23.10
2022-12-14T02:46:32.586Z,22.45
2022-12-14T02:50:19.877Z,20.08
2022-12-14T02:54:08.310Z,20.55
2022-12-14T02:57:55.671Z,22.23
2022-12-14T03:01:39.122Z,20.52
2022-12-14T03:05:20.942Z,22.70
2022-12-14T03:09:13.319Z,19.85
2022-12-14T03:13:01.552Z,20.42
2022-12-14T03:16:50.042Z,18.98
2022-12-14T03:20:35.397Z,20.55
2022-12-14T03:24:28.450Z,19.67
2022-12-14T03:28:23.613Z,20.50
2022-12-14T03:32:12.127Z,19.83
2022-12-14T03:36:20.407Z,21.63
2022-12-14T03:40:02.428Z,18.85
2022-12-14T03:44:22.457Z,19.02
2022-12-14T03:48:30.661Z,19.73
2022-12-14T03:52:21.258Z,19.67
2022-12-14T03:56:12.302Z,18.90
2022-12-14T04:00:16.749Z,19.42
2022-12-14T04:04:17.422Z,19.52
2022-12-14T04:08:12.847Z,17.00
2022-12-14T04:12:38.511Z,17.98
2022-12-14T04:16:45.326Z,18.65
2022-12-14T04:20:52.479Z,20.45
2022-12-14T04:25:03.667Z,19.25
2022-12-14T04:29:13.007Z,18.85
2022-12-14T04:33:27.084Z,18.55
2022-12-14T04:37:14.915Z,18.13
2022-12-14T04:41:01.868Z,17.80
2022-12-14T04:44:52.119Z,18.38
2022-12-14T04:48:48.651Z,18.35
2022-12-14T04:52:40.825Z,20.37
2022-12-14T04:56:22.483Z,18.23
2022-12-14T05:00:05.694Z,18.60
2022-12-14T05:04:23.014Z,18.73
2022-12-14T05:08:04.659Z,18.35
2022-12-14T05:11:54.349Z,21.45
2022-12-14T05:15:43.383Z,18.50
2022-12-14T05:19:26.538Z,20.35
2022-12-14T05:23:08.691Z,19.42
2022-12-14T05:26:50.401Z,18.35
2022-12-14T05:30:33.110Z,18.65
2022-12-14T05:34:14.857Z,21.80
2022-12-14T05:37:56.719Z,19.88
2022-12-14T05:41:38.418Z,19.17
2022-12-14T05:45:20.190Z,19.83
2022-12-14T05:49:02.248Z,20.77
2022-12-14T05:52:43.976Z,21.35
2022-12-14T05:56:25.866Z,20.75
2022-12-14T06:00:08.572Z,21.63
2022-12-14T06:03:53.525Z,22.95
2022-12-14T06:07:35.273Z,19.65
2022-12-14T06:11:26.070Z,23.50
2022-12-14T06:15:08.557Z,21.98
2022-12-14T06:18:52.412Z,21.60
2022-12-14T06:22:34.214Z,21.83
2022-12-14T06:26:16.509Z,20.75
2022-12-14T06:29:58.310Z,22.08
2022-12-14T06:33:40.157Z,22.02
2022-12-14T06:37:21.891Z,22.85
2022-12-14T06:41:08.488Z,20.65
2022-12-14T06:44:50.693Z,20.57
2022-12-14T06:48:32.438Z,20.38
2022-12-14T06:52:14.159Z,20.48
2022-12-14T06:56:04.517Z,18.77
2022-12-14T06:59:46.291Z,21.90
2022-12-14T07:03:28.373Z,18.92
2022-12-14T07:07:10.780Z,19.02
2022-12-14T07:10:57.546Z,20.38
2022-12-14T07:14:42.380Z,20.13
2022-12-14T07:18:25.044Z,19.20
2022-12-14T07:22:06.762Z,18.92
2022-12-14T07:25:49.289Z,20.00
2022-12-14T07:29:34.758Z,18.88
2022-12-14T07:33:16.785Z,19.52
2022-12-14T07:36:58.526Z,21.17
2022-12-14T07:40:40.250Z,20.00
2022-12-14T07:44:21.974Z,17.33
2022-12-14T07:48:06.231Z,19.08
2022-12-14T07:51:48.212Z,20.08
2022-12-14T07:55:30.099Z,18.58
2022-12-14T07:59:19.287Z,18.42
2022-12-14T08:03:01.223Z,18.80
2022-12-14T08:06:43.395Z,18.52
2022-12-14T08:10:25.222Z,17.27
2022-12-14T08:14:11.911Z,19.55
2022-12-14T08:17:53.748Z,19.63
2022-12-14T08:21:35.473Z,17.75
2022-12-14T08:25:17.246Z,18.38
2022-12-14T08:28:58.966Z,20.05
2022-12-14T08:32:40.718Z,20.50
2022-12-14T08:36:26.718Z,18.08
2022-12-14T08:40:09.015Z,16.33
2022-12-14T08:43:56.302Z,16.52
2022-12-14T08:47:38.030Z,15.85
2022-12-14T08:51:20.492Z,15.95
2022-12-14T08:55:02.338Z,16.65
2022-12-14T08:58:44.701Z,17.08
2022-12-14T09:02:26.513Z,19.15
2022-12-14T09:06:10.298Z,17.98
2022-12-14T09:09:52.053Z,15.65
2022-12-14T09:13:34.466Z,16.40
2022-12-14T09:17:17.134Z,15.65
2022-12-14T09:20:58.915Z,17.73
2022-12-14T09:24:40.654Z,15.55
2022-12-14T09:28:22.394Z,16.30
2022-12-14T09:32:04.382Z,15.65
2022-12-14T09:35:46.094Z,16.73
2022-12-14T09:39:29.240Z,15.23
2022-12-14T09:43:21.714Z,16.55
2022-12-14T09:47:19.930Z,16.05
2022-12-14T09:51:02.068Z,17.23
2022-12-14T09:54:45.516Z,16.75
2022-12-14T09:58:33.539Z,18.02
2022-12-14T10:02:36.999Z,17.60
2022-12-14T10:06:36.683Z,15.60
2022-12-14T10:10:26.653Z,17.05
2022-12-14T10:14:29.215Z,16.67
2022-12-14T10:18:58.251Z,16.65
2022-12-14T10:22:39.687Z,16.35
2022-12-14T10:26:23.603Z,15.82
2022-12-14T10:30:14.365Z,16.98
2022-12-14T10:34:00.851Z,14.65
2022-12-14T10:37:45.794Z,16.20
2022-12-14T10:41:52.889Z,15.50
2022-12-14T10:45:57.688Z,16.85
2022-12-14T10:49:53.745Z,14.93
2022-12-14T10:53:49.780Z,14.10
2022-12-14T10:57:31.555Z,13.10
2022-12-14T11:01:15.444Z,14.35
2022-12-14T11:04:59.990Z,14.07
2022-12-14T11:08:41.787Z,12.57
2022-12-14T11:12:26.683Z,14.32
2022-12-14T11:16:25.318Z,13.88
2022-12-14T11:20:09.506Z,13.55
2022-12-14T11:23:54.560Z,12.95
2022-12-14T11:27:39.330Z,11.95
2022-12-14T11:31:21.113Z,13.27
2022-12-14T11:35:03.084Z,14.15
2022-12-14T11:38:55.933Z,12.43
2022-12-14T11:42:38.115Z,12.80
2022-12-14T11:46:20.733Z,14.32
2022-12-14T11:50:02.662Z,11.95
2022-12-14T11:54:00.254Z,13.82
2022-12-14T11:57:58.301Z,11.95
2022-12-14T12:01:40.125Z,12.40
2022-12-14T12:05:23.639Z,13.20
2022-12-14T12:09:27.473Z,14.43
2022-12-14T12:13:28.382Z,11.52
2022-12-14T12:17:20.948Z,13.95
2022-12-14T12:21:11.333Z,12.38
2022-12-14T12:29:06.519Z,11.90
2022-12-14T12:32:52.508Z,12.10
2022-12-14T12:36:34.278Z,13.05
2022-12-14T12:40:25.992Z,12.80
2022-12-14T12:44:32.380Z,12.57
2022-12-14T12:48:36.199Z,12.07
2022-12-14T12:52:30.702Z,12.52
2022-12-14T12:56:35.466Z,13.20
2022-12-14T13:00:26.847Z,12.85
2022-12-14T13:04:18.358Z,13.07
2022-12-14T13:08:06.930Z,12.93
2022-12-14T13:11:49.430Z,14.25
2022-12-14T13:15:59.236Z,13.77
2022-12-14T13:19:50.675Z,13.98
2022-12-14T13:23:44.878Z,15.18
2022-12-14T13:28:02.351Z,13.68
2022-12-14T13:32:09.623Z,13.32
2022-12-14T13:40:26.101Z,14.30
2022-12-14T13:44:47.651Z,14.27
2022-12-14T13:48:38.923Z,15.85
2022-12-14T13:52:28.632Z,13.75
2022-12-14T13:56:26.521Z,14.25
2022-12-14T14:00:45.150Z,11.88
2022-12-14T14:04:31.822Z,12.30
2022-12-14T14:08:37.626Z,13.00
2022-12-14T14:12:24.398Z,13.02
2022-12-14T14:16:27.850Z,14.20
2022-12-14T14:20:46.532Z,13.55
2022-12-14T14:24:28.929Z,13.63
2022-12-14T14:28:15.225Z,14.40
2022-12-14T14:32:06.484Z,12.40
2022-12-14T14:35:50.013Z,12.60
2022-12-14T14:39:56.143Z,12.40
2022-12-14T14:43:49.839Z,12.35
2022-12-14T14:47:35.723Z,11.95
2022-12-14T14:51:20.611Z,13.07
2022-12-14T14:59:44.264Z,13.00
2022-12-14T15:03:51.942Z,13.57
2022-12-14T15:07:35.119Z,13.32
2022-12-14T15:11:22.817Z,13.60
2022-12-14T15:15:38.632Z,12.52
2022-12-14T15:19:23.177Z,12.45
2022-12-14T15:23:06.670Z,12.73
2022-12-14T15:26:49.062Z,11.55
2022-12-14T15:30:32.049Z,12.07
2022-12-14T15:34:17.784Z,12.45
2022-12-14T15:38:09.041Z,11.45
2022-12-14T15:41:50.771Z,11.45
2022-12-14T15:45:42.723Z,12.63
2022-12-14T15:49:24.516Z,12.00
2022-12-14T15:53:31.995Z,13.70
2022-12-14T15:57:19.845Z,12.52
2022-12-14T16:04:56.942Z,13.10
2022-12-14T16:08:44.820Z,12.52
2022-12-14T16:12:44.198Z,13.32
2022-12-14T16:16:26.946Z,13.20
2022-12-14T16:20:08.669Z,13.57
2022-12-14T16:23:50.977Z,13.20
2022-12-14T16:27:37.835Z,13.50
2022-12-14T16:31:22.481Z,12.90
2022-12-14T16:35:04.507Z,12.32
2022-12-14T16:39:16.936Z,12.93
2022-12-14T16:42:58.716Z,11.70
2022-12-14T16:46:42.630Z,14.00
2022-12-14T16:50:55.652Z,11.88
2022-12-14T16:54:32.699Z,12.95
2022-12-14T16:58:20.263Z,11.75
2022-12-14T17:02:02.367Z,12.73
2022-12-14T17:05:52.246Z,13.15
2022-12-14T17:09:35.280Z,12.52
2022-12-14T17:13:17.127Z,12.80
2022-12-14T17:17:01.648Z,13.05
2022-12-14T17:20:43.574Z,13.75
2022-12-14T17:24:25.689Z,14.23
2022-12-14T17:28:34.794Z,14.70
2022-12-14T17:32:18.006Z,14.32
2022-12-14T17:35:59.852Z,14.63
2022-12-14T17:39:41.616Z,13.90
2022-12-14T17:43:30.025Z,13.93
2022-12-14T17:47:14.018Z,14.07
2022-12-14T17:50:56.194Z,14.20
2022-12-14T17:54:38.340Z,14.25
2022-12-14T17:58:21.357Z,14.15
2022-12-14T18:02:03.263Z,13.10
2022-12-14T18:05:49.238Z,13.73
2022-12-14T18:09:33.054Z,14.77
2022-12-14T18:13:15.532Z,16.27
2022-12-14T18:17:00.903Z,16.10
2022-12-14T18:20:49.536Z,17.08
2022-12-14T18:24:31.691Z,16.27
2022-12-14T18:28:14.002Z,17.13
2022-12-14T18:31:55.778Z,17.52
2022-12-14T18:35:37.644Z,17.08
2022-12-14T18:39:19.847Z,19.73
2022-12-14T18:43:01.883Z,17.02
2022-12-14T18:46:43.608Z,16.20
2022-12-14T18:54:12.670Z,18.02
2022-12-14T18:57:56.730Z,17.70
2022-12-14T19:01:39.239Z,18.20
2022-12-14T19:05:25.890Z,19.65
2022-12-14T19:09:08.251Z,21.73
2022-12-14T19:12:50.861Z,21.35
2022-12-14T19:16:32.863Z,20.23
2022-12-14T19:20:16.986Z,18.65
2022-12-14T19:24:02.096Z,19.00
2022-12-14T19:28:25.656Z,16.73
2022-12-14T19:31:45.856Z,18.63
2022-12-14T19:35:27.617Z,20.88
2022-12-14T19:39:09.406Z,16.05
2022-12-14T19:42:51.322Z,17.50
2022-12-14T19:46:33.095Z,17.02
2022-12-14T19:50:15.875Z,17.60
2022-12-14T19:53:57.729Z,14.85
2022-12-14T19:57:40.209Z,16.05
2022-12-14T20:01:22.121Z,18.20
2022-12-14T20:05:05.226Z,17.05
2022-12-14T20:08:49.358Z,15.18
2022-12-14T20:12:33.463Z,18.17
2022-12-14T20:16:18.998Z,17.60
2022-12-14T20:20:01.372Z,16.90
2022-12-14T20:23:47.515Z,18.77
2022-12-14T20:27:30.023Z,19.08
2022-12-14T20:31:15.984Z,18.05
2022-12-14T20:34:58.049Z,18.50
2022-12-14T20:38:40.721Z,17.77
2022-12-14T20:42:22.881Z,18.95
2022-12-14T20:46:06.055Z,17.77
2022-12-14T20:49:48.626Z,17.45
2022-12-14T20:53:32.077Z,17.63
2022-12-14T20:57:15.234Z,16.23
2022-12-14T21:00:57.035Z,18.55
2022-12-14T21:04:38.773Z,17.75
2022-12-14T21:08:21.459Z,17.67
2022-12-14T21:12:22.873Z,17.90
2022-12-14T21:16:09.819Z,18.42
2022-12-14T21:19:51.996Z,17.45
2022-12-14T21:23:34.760Z,18.42
2022-12-14T21:27:19.462Z,16.70
2022-12-14T21:31:05.835Z,16.13
2022-12-14T21:34:48.033Z,16.13
2022-12-14T21:38:29.816Z,17.13
2022-12-14T21:42:15.390Z,17.55
2022-12-14T21:45:57.245Z,19.25
2022-12-14T21:49:40.470Z,18.90
2022-12-14T21:53:22.378Z,17.20
2022-12-14T21:57:22.776Z,18.33
2022-12-14T22:01:09.215Z,17.27
2022-12-14T22:04:55.941Z,16.98
2022-12-14T22:08:38.171Z,18.90
2022-12-14T22:12:20.076Z,17.52
2022-12-14T22:16:06.140Z,17.77
2022-12-14T22:19:48.945Z,19.48
2022-12-14T22:23:34.141Z,20.40
2022-12-14T22:27:17.214Z,17.50
2022-12-14T22:31:05.036Z,18.90
2022-12-14T22:34:46.713Z,20.90
2022-12-14T22:38:32.345Z,17.27
2022-12-14T22:42:14.112Z,18.30
2022-12-14T22:45:56.400Z,17.40
2022-12-14T22:49:38.123Z,19.55
2022-12-14T22:53:19.845Z,17.77
2022-12-14T22:57:12.635Z,17.88
2022-12-14T23:00:54.626Z,18.25
2022-12-14T23:04:38.140Z,21.17
2022-12-14T23:08:20.473Z,18.23
2022-12-14T23:12:22.061Z,20.00
2022-12-14T23:16:23.010Z,20.83
2022-12-14T23:20:24.183Z,21.38
2022-12-14T23:24:25.770Z,18.35
2022-12-14T23:28:26.253Z,17.65
2022-12-14T23:32:26.766Z,18.85
2022-12-14T23:36:27.337Z,18.00
2022-12-14T23:40:28.251Z,18.25
2022-12-14T23:44:28.795Z,19.48
2022-12-14T23:48:29.361Z,18.08
2022-12-14T23:52:29.770Z,19.42
2022-12-14T23:56:30.178Z,16.63
